sensor_id;sensor_type;location;lat;lon;timestamp;P1;durP1;ratioP1;P2;durP2;ratioP2
22843;SDS011;11588;51.178;4.852;2023-02-22T00:02:48;437.52;;;57.20;;
22843;SDS011;11588;51.178;4.852;2023-02-22T00:05:14;238.63;;;50.92;;
22843;SDS011;11588;51.178;4.852;2023-02-22T00:07:42;194.65;;;47.38;;
22843;SDS011;11588;51.178;4.852;2023-02-22T00:10:09;258.13;;;51.80;;
22843;SDS011;11588;51.178;4.852;2023-02-22T00:12:41;257.35;;;54.08;;
22843;SDS011;11588;51.178;4.852;2023-02-22T00:15:08;316.25;;;54.60;;
22843;SDS011;11588;51.178;4.852;2023-02-22T00:17:34;207.13;;;49.83;;
22843;SDS011;11588;51.178;4.852;2023-02-22T00:20:01;331.30;;;53.25;;
22843;SDS011;11588;51.178;4.852;2023-02-22T00:22:32;375.35;;;55.67;;
22843;SDS011;11588;51.178;4.852;2023-02-22T00:25:02;218.23;;;47.17;;
22843;SDS011;11588;51.178;4.852;2023-02-22T00:27:28;512.38;;;62.85;;
22843;SDS011;11588;51.178;4.852;2023-02-22T00:29:55;254.57;;;50.47;;
22843;SDS011;11588;51.178;4.852;2023-02-22T00:32:21;282.58;;;50.67;;
22843;SDS011;11588;51.178;4.852;2023-02-22T00:34:50;427.02;;;56.35;;
22843;SDS011;11588;51.178;4.852;2023-02-22T00:37:19;586.03;;;59.08;;
22843;SDS011;11588;51.178;4.852;2023-02-22T00:39:46;401.08;;;51.83;;
22843;SDS011;11588;51.178;4.852;2023-02-22T00:42:13;454.88;;;53.40;;
22843;SDS011;11588;51.178;4.852;2023-02-22T00:44:40;428.92;;;54.90;;
22843;SDS011;11588;51.178;4.852;2023-02-22T00:47:06;490.98;;;56.95;;
22843;SDS011;11588;51.178;4.852;2023-02-22T00:49:35;222.23;;;45.17;;
22843;SDS011;11588;51.178;4.852;2023-02-22T00:52:02;279.70;;;44.40;;
22843;SDS011;11588;51.178;4.852;2023-02-22T00:54:29;275.80;;;45.80;;
22843;SDS011;11588;51.178;4.852;2023-02-22T00:56:56;304.33;;;44.67;;
22843;SDS011;11588;51.178;4.852;2023-02-22T00:59:24;361.63;;;48.25;;
22843;SDS011;11588;51.178;4.852;2023-02-22T01:01:52;243.52;;;44.08;;
22843;SDS011;11588;51.178;4.852;2023-02-22T01:04:18;200.10;;;44.08;;
22843;SDS011;11588;51.178;4.852;2023-02-22T01:06:44;240.43;;;43.08;;
22843;SDS011;11588;51.178;4.852;2023-02-22T01:09:11;303.30;;;48.05;;
22843;SDS011;11588;51.178;4.852;2023-02-22T01:11:37;641.65;;;60.97;;
22843;SDS011;11588;51.178;4.852;2023-02-22T01:14:03;527.83;;;57.53;;
22843;SDS011;11588;51.178;4.852;2023-02-22T01:16:31;285.75;;;48.42;;
22843;SDS011;11588;51.178;4.852;2023-02-22T01:18:57;542.80;;;55.97;;
22843;SDS011;11588;51.178;4.852;2023-02-22T01:21:24;734.53;;;63.83;;
22843;SDS011;11588;51.178;4.852;2023-02-22T01:23:51;226.25;;;43.92;;
22843;SDS011;11588;51.178;4.852;2023-02-22T01:26:17;382.42;;;50.15;;
22843;SDS011;11588;51.178;4.852;2023-02-22T01:28:45;475.33;;;53.28;;
22843;SDS011;11588;51.178;4.852;2023-02-22T01:31:11;268.85;;;46.35;;
22843;SDS011;11588;51.178;4.852;2023-02-22T01:33:39;510.67;;;57.13;;
22843;SDS011;11588;51.178;4.852;2023-02-22T01:36:05;465.13;;;54.65;;
22843;SDS011;11588;51.178;4.852;2023-02-22T01:38:36;598.67;;;58.37;;
22843;SDS011;11588;51.178;4.852;2023-02-22T01:41:03;481.90;;;53.22;;
22843;SDS011;11588;51.178;4.852;2023-02-22T01:43:30;442.55;;;52.83;;
22843;SDS011;11588;51.178;4.852;2023-02-22T01:46:01;475.15;;;53.47;;
22843;SDS011;11588;51.178;4.852;2023-02-22T01:51:05;298.30;;;46.40;;
22843;SDS011;11588;51.178;4.852;2023-02-22T01:53:37;516.60;;;55.30;;
22843;SDS011;11588;51.178;4.852;2023-02-22T01:56:05;654.53;;;60.55;;
22843;SDS011;11588;51.178;4.852;2023-02-22T01:58:33;532.90;;;57.05;;
22843;SDS011;11588;51.178;4.852;2023-02-22T02:01:00;435.98;;;55.78;;
22843;SDS011;11588;51.178;4.852;2023-02-22T02:03:27;697.10;;;64.30;;
22843;SDS011;11588;51.178;4.852;2023-02-22T02:05:55;418.02;;;51.05;;
22843;SDS011;11588;51.178;4.852;2023-02-22T02:08:29;374.75;;;49.40;;
22843;SDS011;11588;51.178;4.852;2023-02-22T02:10:56;265.25;;;45.33;;
22843;SDS011;11588;51.178;4.852;2023-02-22T02:13:25;264.55;;;44.78;;
22843;SDS011;11588;51.178;4.852;2023-02-22T02:15:53;416.17;;;50.83;;
22843;SDS011;11588;51.178;4.852;2023-02-22T02:18:20;576.63;;;58.50;;
22843;SDS011;11588;51.178;4.852;2023-02-22T02:20:56;435.58;;;53.83;;
22843;SDS011;11588;51.178;4.852;2023-02-22T02:31:59;438.15;;;50.85;;
22843;SDS011;11588;51.178;4.852;2023-02-22T02:34:32;534.67;;;54.72;;
22843;SDS011;11588;51.178;4.852;2023-02-22T02:39:50;386.27;;;50.13;;
22843;SDS011;11588;51.178;4.852;2023-02-22T02:42:21;513.75;;;51.78;;
22843;SDS011;11588;51.178;4.852;2023-02-22T02:44:54;258.00;;;43.10;;
22843;SDS011;11588;51.178;4.852;2023-02-22T02:52:33;275.38;;;43.50;;
22843;SDS011;11588;51.178;4.852;2023-02-22T02:55:01;534.65;;;56.47;;
22843;SDS011;11588;51.178;4.852;2023-02-22T02:57:28;385.92;;;50.42;;
22843;SDS011;11588;51.178;4.852;2023-02-22T02:59:56;307.95;;;46.97;;
22843;SDS011;11588;51.178;4.852;2023-02-22T03:02:34;336.58;;;48.03;;
22843;SDS011;11588;51.178;4.852;2023-02-22T03:05:10;472.10;;;54.30;;
22843;SDS011;11588;51.178;4.852;2023-02-22T03:07:49;287.30;;;46.50;;
22843;SDS011;11588;51.178;4.852;2023-02-22T03:10:30;243.05;;;42.45;;
22843;SDS011;11588;51.178;4.852;2023-02-22T03:15:42;132.80;;;37.40;;
22843;SDS011;11588;51.178;4.852;2023-02-22T03:18:12;301.92;;;46.95;;
22843;SDS011;11588;51.178;4.852;2023-02-22T03:20:45;407.90;;;50.40;;
22843;SDS011;11588;51.178;4.852;2023-02-22T03:26:23;317.48;;;49.10;;
22843;SDS011;11588;51.178;4.852;2023-02-22T03:28:45;343.42;;;49.75;;
22843;SDS011;11588;51.178;4.852;2023-02-22T03:31:15;367.77;;;51.72;;
22843;SDS011;11588;51.178;4.852;2023-02-22T03:33:44;460.20;;;55.15;;
22843;SDS011;11588;51.178;4.852;2023-02-22T03:36:12;358.48;;;51.38;;
22843;SDS011;11588;51.178;4.852;2023-02-22T03:38:41;397.60;;;52.17;;
22843;SDS011;11588;51.178;4.852;2023-02-22T03:41:09;333.77;;;49.97;;
22843;SDS011;11588;51.178;4.852;2023-02-22T03:43:39;273.70;;;47.47;;
22843;SDS011;11588;51.178;4.852;2023-02-22T03:46:07;241.63;;;46.80;;
22843;SDS011;11588;51.178;4.852;2023-02-22T03:48:37;262.33;;;46.00;;
22843;SDS011;11588;51.178;4.852;2023-02-22T03:51:04;297.80;;;46.53;;
22843;SDS011;11588;51.178;4.852;2023-02-22T03:53:31;317.13;;;47.00;;
22843;SDS011;11588;51.178;4.852;2023-02-22T03:55:58;395.10;;;50.08;;
22843;SDS011;11588;51.178;4.852;2023-02-22T03:58:26;345.95;;;50.10;;
22843;SDS011;11588;51.178;4.852;2023-02-22T04:00:54;392.02;;;51.00;;
22843;SDS011;11588;51.178;4.852;2023-02-22T04:03:21;307.85;;;49.20;;
22843;SDS011;11588;51.178;4.852;2023-02-22T04:05:47;391.30;;;51.65;;
22843;SDS011;11588;51.178;4.852;2023-02-22T04:08:14;361.17;;;48.65;;
22843;SDS011;11588;51.178;4.852;2023-02-22T04:10:40;246.80;;;44.28;;
22843;SDS011;11588;51.178;4.852;2023-02-22T04:13:06;321.38;;;47.55;;
22843;SDS011;11588;51.178;4.852;2023-02-22T04:15:34;342.23;;;48.10;;
22843;SDS011;11588;51.178;4.852;2023-02-22T04:18:00;294.63;;;44.75;;
22843;SDS011;11588;51.178;4.852;2023-02-22T04:20:27;282.48;;;45.85;;
22843;SDS011;11588;51.178;4.852;2023-02-22T04:22:54;297.67;;;45.45;;
22843;SDS011;11588;51.178;4.852;2023-02-22T04:25:21;272.15;;;42.80;;
22843;SDS011;11588;51.178;4.852;2023-02-22T04:27:49;195.27;;;40.80;;
22843;SDS011;11588;51.178;4.852;2023-02-22T04:30:17;186.18;;;41.33;;
22843;SDS011;11588;51.178;4.852;2023-02-22T04:32:43;172.23;;;37.80;;
22843;SDS011;11588;51.178;4.852;2023-02-22T04:35:09;211.93;;;41.97;;
22843;SDS011;11588;51.178;4.852;2023-02-22T04:37:36;282.17;;;43.78;;
22843;SDS011;11588;51.178;4.852;2023-02-22T04:40:02;174.48;;;39.65;;
22843;SDS011;11588;51.178;4.852;2023-02-22T04:42:33;216.43;;;42.15;;
22843;SDS011;11588;51.178;4.852;2023-02-22T04:44:59;227.55;;;41.42;;
22843;SDS011;11588;51.178;4.852;2023-02-22T04:47:26;196.18;;;40.75;;
22843;SDS011;11588;51.178;4.852;2023-02-22T04:49:52;213.20;;;41.15;;
22843;SDS011;11588;51.178;4.852;2023-02-22T04:52:20;210.48;;;41.42;;
22843;SDS011;11588;51.178;4.852;2023-02-22T04:54:46;187.50;;;39.60;;
22843;SDS011;11588;51.178;4.852;2023-02-22T04:57:14;227.73;;;40.90;;
22843;SDS011;11588;51.178;4.852;2023-02-22T04:59:41;178.30;;;39.53;;
22843;SDS011;11588;51.178;4.852;2023-02-22T05:02:07;157.52;;;39.92;;
22843;SDS011;11588;51.178;4.852;2023-02-22T05:04:33;135.93;;;38.72;;
22843;SDS011;11588;51.178;4.852;2023-02-22T05:07:00;122.35;;;37.60;;
22843;SDS011;11588;51.178;4.852;2023-02-22T05:09:27;137.25;;;40.10;;
22843;SDS011;11588;51.178;4.852;2023-02-22T05:11:54;145.80;;;39.92;;
22843;SDS011;11588;51.178;4.852;2023-02-22T05:14:20;158.55;;;40.25;;
22843;SDS011;11588;51.178;4.852;2023-02-22T05:16:47;192.52;;;41.20;;
22843;SDS011;11588;51.178;4.852;2023-02-22T05:19:14;228.73;;;43.85;;
22843;SDS011;11588;51.178;4.852;2023-02-22T05:21:41;215.35;;;42.78;;
22843;SDS011;11588;51.178;4.852;2023-02-22T05:24:07;206.90;;;40.53;;
22843;SDS011;11588;51.178;4.852;2023-02-22T05:26:33;169.48;;;41.20;;
22843;SDS011;11588;51.178;4.852;2023-02-22T05:28:59;136.75;;;38.20;;
22843;SDS011;11588;51.178;4.852;2023-02-22T05:31:25;108.95;;;36.83;;
22843;SDS011;11588;51.178;4.852;2023-02-22T05:33:52;107.97;;;36.15;;
22843;SDS011;11588;51.178;4.852;2023-02-22T05:36:18;104.70;;;36.70;;
22843;SDS011;11588;51.178;4.852;2023-02-22T05:38:44;100.57;;;35.10;;
22843;SDS011;11588;51.178;4.852;2023-02-22T05:41:11;104.57;;;36.10;;
22843;SDS011;11588;51.178;4.852;2023-02-22T05:43:38;109.20;;;37.15;;
22843;SDS011;11588;51.178;4.852;2023-02-22T05:46:05;99.53;;;36.55;;
22843;SDS011;11588;51.178;4.852;2023-02-22T05:48:31;98.97;;;35.72;;
22843;SDS011;11588;51.178;4.852;2023-02-22T05:51:00;94.15;;;35.08;;
22843;SDS011;11588;51.178;4.852;2023-02-22T05:53:27;117.55;;;37.47;;
22843;SDS011;11588;51.178;4.852;2023-02-22T05:55:55;105.00;;;35.85;;
22843;SDS011;11588;51.178;4.852;2023-02-22T05:58:23;103.93;;;37.88;;
22843;SDS011;11588;51.178;4.852;2023-02-22T06:00:49;146.25;;;38.58;;
22843;SDS011;11588;51.178;4.852;2023-02-22T06:03:16;150.50;;;38.67;;
22843;SDS011;11588;51.178;4.852;2023-02-22T06:05:42;146.10;;;38.55;;
22843;SDS011;11588;51.178;4.852;2023-02-22T06:08:08;123.68;;;39.25;;
22843;SDS011;11588;51.178;4.852;2023-02-22T06:10:35;148.00;;;39.15;;
22843;SDS011;11588;51.178;4.852;2023-02-22T06:13:01;117.28;;;38.67;;
22843;SDS011;11588;51.178;4.852;2023-02-22T06:15:28;126.47;;;37.97;;
22843;SDS011;11588;51.178;4.852;2023-02-22T06:17:55;116.80;;;36.95;;
22843;SDS011;11588;51.178;4.852;2023-02-22T06:20:22;97.32;;;35.38;;
22843;SDS011;11588;51.178;4.852;2023-02-22T06:22:49;88.50;;;34.75;;
22843;SDS011;11588;51.178;4.852;2023-02-22T06:25:17;98.65;;;35.33;;
22843;SDS011;11588;51.178;4.852;2023-02-22T06:27:44;94.70;;;34.88;;
22843;SDS011;11588;51.178;4.852;2023-02-22T06:30:10;94.75;;;34.22;;
22843;SDS011;11588;51.178;4.852;2023-02-22T06:32:37;94.72;;;36.08;;
22843;SDS011;11588;51.178;4.852;2023-02-22T06:35:03;95.70;;;35.50;;
22843;SDS011;11588;51.178;4.852;2023-02-22T06:37:29;90.18;;;34.90;;
22843;SDS011;11588;51.178;4.852;2023-02-22T06:39:56;84.32;;;33.55;;
22843;SDS011;11588;51.178;4.852;2023-02-22T06:42:22;79.18;;;33.38;;
22843;SDS011;11588;51.178;4.852;2023-02-22T06:44:48;84.97;;;35.20;;
22843;SDS011;11588;51.178;4.852;2023-02-22T06:47:15;85.57;;;32.95;;
22843;SDS011;11588;51.178;4.852;2023-02-22T06:49:41;81.03;;;34.50;;
22843;SDS011;11588;51.178;4.852;2023-02-22T06:52:08;79.57;;;33.53;;
22843;SDS011;11588;51.178;4.852;2023-02-22T06:54:35;81.22;;;33.22;;
22843;SDS011;11588;51.178;4.852;2023-02-22T06:57:02;75.82;;;32.03;;
22843;SDS011;11588;51.178;4.852;2023-02-22T06:59:28;71.28;;;33.33;;
22843;SDS011;11588;51.178;4.852;2023-02-22T07:01:54;71.95;;;31.90;;
22843;SDS011;11588;51.178;4.852;2023-02-22T07:04:21;74.35;;;33.10;;
22843;SDS011;11588;51.178;4.852;2023-02-22T07:06:47;70.25;;;31.88;;
22843;SDS011;11588;51.178;4.852;2023-02-22T07:09:14;80.82;;;33.38;;
22843;SDS011;11588;51.178;4.852;2023-02-22T07:11:42;68.32;;;31.13;;
22843;SDS011;11588;51.178;4.852;2023-02-22T07:14:08;67.20;;;31.27;;
22843;SDS011;11588;51.178;4.852;2023-02-22T07:16:35;68.57;;;32.50;;
22843;SDS011;11588;51.178;4.852;2023-02-22T07:19:01;62.90;;;30.00;;
22843;SDS011;11588;51.178;4.852;2023-02-22T07:21:27;60.42;;;29.83;;
22843;SDS011;11588;51.178;4.852;2023-02-22T07:23:55;58.90;;;28.63;;
22843;SDS011;11588;51.178;4.852;2023-02-22T07:26:22;57.95;;;29.65;;
22843;SDS011;11588;51.178;4.852;2023-02-22T07:28:48;53.08;;;28.95;;
22843;SDS011;11588;51.178;4.852;2023-02-22T07:31:14;54.92;;;28.85;;
22843;SDS011;11588;51.178;4.852;2023-02-22T07:33:41;55.13;;;29.55;;
22843;SDS011;11588;51.178;4.852;2023-02-22T07:36:07;53.28;;;28.98;;
22843;SDS011;11588;51.178;4.852;2023-02-22T07:38:33;53.17;;;28.38;;
22843;SDS011;11588;51.178;4.852;2023-02-22T07:40:59;53.28;;;27.27;;
22843;SDS011;11588;51.178;4.852;2023-02-22T07:43:27;49.58;;;28.20;;
22843;SDS011;11588;51.178;4.852;2023-02-22T07:45:54;50.95;;;27.55;;
22843;SDS011;11588;51.178;4.852;2023-02-22T07:48:22;54.05;;;28.50;;
22843;SDS011;11588;51.178;4.852;2023-02-22T07:50:49;51.83;;;27.67;;
22843;SDS011;11588;51.178;4.852;2023-02-22T07:53:20;56.38;;;29.88;;
22843;SDS011;11588;51.178;4.852;2023-02-22T07:55:46;53.40;;;28.13;;
22843;SDS011;11588;51.178;4.852;2023-02-22T07:58:16;46.28;;;26.20;;
22843;SDS011;11588;51.178;4.852;2023-02-22T08:00:41;45.80;;;25.50;;
22843;SDS011;11588;51.178;4.852;2023-02-22T08:03:11;45.97;;;26.33;;
22843;SDS011;11588;51.178;4.852;2023-02-22T08:05:39;41.55;;;25.35;;
22843;SDS011;11588;51.178;4.852;2023-02-22T08:08:05;43.13;;;24.67;;
22843;SDS011;11588;51.178;4.852;2023-02-22T08:10:32;42.50;;;24.13;;
22843;SDS011;11588;51.178;4.852;2023-02-22T08:13:00;40.00;;;23.23;;
22843;SDS011;11588;51.178;4.852;2023-02-22T08:15:30;37.63;;;23.27;;
22843;SDS011;11588;51.178;4.852;2023-02-22T08:17:57;36.25;;;22.35;;
22843;SDS011;11588;51.178;4.852;2023-02-22T08:20:23;36.22;;;22.38;;
22843;SDS011;11588;51.178;4.852;2023-02-22T08:22:52;36.40;;;22.35;;
22843;SDS011;11588;51.178;4.852;2023-02-22T08:25:21;32.85;;;21.52;;
22843;SDS011;11588;51.178;4.852;2023-02-22T08:27:47;34.45;;;21.20;;
22843;SDS011;11588;51.178;4.852;2023-02-22T08:30:16;32.28;;;21.17;;
22843;SDS011;11588;51.178;4.852;2023-02-22T08:32:43;30.55;;;19.83;;
22843;SDS011;11588;51.178;4.852;2023-02-22T08:35:10;32.45;;;20.35;;
22843;SDS011;11588;51.178;4.852;2023-02-22T08:37:40;31.60;;;20.98;;
22843;SDS011;11588;51.178;4.852;2023-02-22T08:40:07;31.90;;;19.80;;
22843;SDS011;11588;51.178;4.852;2023-02-22T08:42:33;29.83;;;19.38;;
22843;SDS011;11588;51.178;4.852;2023-02-22T08:44:59;33.30;;;20.42;;
22843;SDS011;11588;51.178;4.852;2023-02-22T08:47:25;28.73;;;19.52;;
22843;SDS011;11588;51.178;4.852;2023-02-22T08:49:52;32.20;;;20.35;;
22843;SDS011;11588;51.178;4.852;2023-02-22T08:52:19;29.15;;;19.20;;
22843;SDS011;11588;51.178;4.852;2023-02-22T08:54:46;29.33;;;19.67;;
22843;SDS011;11588;51.178;4.852;2023-02-22T08:57:13;26.88;;;17.83;;
22843;SDS011;11588;51.178;4.852;2023-02-22T08:59:39;24.42;;;17.73;;
22843;SDS011;11588;51.178;4.852;2023-02-22T09:02:12;25.50;;;17.92;;
22843;SDS011;11588;51.178;4.852;2023-02-22T09:04:43;26.33;;;18.60;;
22843;SDS011;11588;51.178;4.852;2023-02-22T09:07:09;25.33;;;17.77;;
22843;SDS011;11588;51.178;4.852;2023-02-22T09:09:36;24.38;;;16.42;;
22843;SDS011;11588;51.178;4.852;2023-02-22T09:12:03;27.02;;;17.65;;
22843;SDS011;11588;51.178;4.852;2023-02-22T09:14:30;27.00;;;18.40;;
22843;SDS011;11588;51.178;4.852;2023-02-22T09:16:56;24.48;;;16.80;;
22843;SDS011;11588;51.178;4.852;2023-02-22T09:19:22;29.80;;;17.25;;
22843;SDS011;11588;51.178;4.852;2023-02-22T09:21:52;25.67;;;17.73;;
22843;SDS011;11588;51.178;4.852;2023-02-22T09:24:19;30.13;;;18.60;;
22843;SDS011;11588;51.178;4.852;2023-02-22T09:26:45;26.15;;;16.77;;
22843;SDS011;11588;51.178;4.852;2023-02-22T09:29:12;26.83;;;17.85;;
22843;SDS011;11588;51.178;4.852;2023-02-22T09:31:39;24.88;;;17.15;;
22843;SDS011;11588;51.178;4.852;2023-02-22T09:34:06;27.55;;;17.75;;
22843;SDS011;11588;51.178;4.852;2023-02-22T09:36:39;29.55;;;18.52;;
22843;SDS011;11588;51.178;4.852;2023-02-22T09:39:05;29.90;;;18.55;;
22843;SDS011;11588;51.178;4.852;2023-02-22T09:41:36;28.75;;;19.67;;
22843;SDS011;11588;51.178;4.852;2023-02-22T09:46:42;29.65;;;19.67;;
22843;SDS011;11588;51.178;4.852;2023-02-22T09:51:41;28.55;;;19.60;;
22843;SDS011;11588;51.178;4.852;2023-02-22T09:56:39;32.40;;;19.73;;
22843;SDS011;11588;51.178;4.852;2023-02-22T09:59:06;26.27;;;18.88;;
22843;SDS011;11588;51.178;4.852;2023-02-22T10:01:36;25.95;;;18.73;;
22843;SDS011;11588;51.178;4.852;2023-02-22T10:04:09;31.02;;;19.60;;
22843;SDS011;11588;51.178;4.852;2023-02-22T10:06:36;28.75;;;19.33;;
22843;SDS011;11588;51.178;4.852;2023-02-22T10:09:04;29.52;;;20.02;;
22843;SDS011;11588;51.178;4.852;2023-02-22T10:14:07;25.02;;;18.50;;
22843;SDS011;11588;51.178;4.852;2023-02-22T10:21:45;26.23;;;18.55;;
22843;SDS011;11588;51.178;4.852;2023-02-22T10:24:18;27.35;;;17.45;;
22843;SDS011;11588;51.178;4.852;2023-02-22T10:26:48;29.42;;;18.40;;
22843;SDS011;11588;51.178;4.852;2023-02-22T10:29:17;25.48;;;17.95;;
22843;SDS011;11588;51.178;4.852;2023-02-22T10:31:47;24.27;;;17.75;;
22843;SDS011;11588;51.178;4.852;2023-02-22T10:34:16;23.95;;;16.73;;
22843;SDS011;11588;51.178;4.852;2023-02-22T10:36:45;27.40;;;18.25;;
22843;SDS011;11588;51.178;4.852;2023-02-22T10:41:43;25.17;;;18.80;;
22843;SDS011;11588;51.178;4.852;2023-02-22T10:44:11;26.35;;;18.73;;
22843;SDS011;11588;51.178;4.852;2023-02-22T10:46:37;28.35;;;19.15;;
22843;SDS011;11588;51.178;4.852;2023-02-22T10:49:05;26.23;;;18.15;;
22843;SDS011;11588;51.178;4.852;2023-02-22T10:51:32;29.35;;;19.17;;
22843;SDS011;11588;51.178;4.852;2023-02-22T10:54:13;28.48;;;18.95;;
22843;SDS011;11588;51.178;4.852;2023-02-22T10:59:24;26.65;;;18.13;;
22843;SDS011;11588;51.178;4.852;2023-02-22T11:01:53;29.70;;;18.30;;
22843;SDS011;11588;51.178;4.852;2023-02-22T11:04:19;28.08;;;19.25;;
22843;SDS011;11588;51.178;4.852;2023-02-22T11:06:48;26.08;;;19.08;;
22843;SDS011;11588;51.178;4.852;2023-02-22T11:09:16;26.77;;;19.63;;
22843;SDS011;11588;51.178;4.852;2023-02-22T11:11:44;28.58;;;20.20;;
22843;SDS011;11588;51.178;4.852;2023-02-22T11:14:11;29.17;;;19.70;;
22843;SDS011;11588;51.178;4.852;2023-02-22T11:19:10;30.98;;;20.10;;
22843;SDS011;11588;51.178;4.852;2023-02-22T11:21:39;26.30;;;19.25;;
22843;SDS011;11588;51.178;4.852;2023-02-22T11:24:06;30.20;;;20.63;;
22843;SDS011;11588;51.178;4.852;2023-02-22T11:29:04;33.03;;;21.75;;
22843;SDS011;11588;51.178;4.852;2023-02-22T11:31:39;31.23;;;21.13;;
22843;SDS011;11588;51.178;4.852;2023-02-22T11:36:38;32.30;;;21.48;;
22843;SDS011;11588;51.178;4.852;2023-02-22T11:39:19;34.55;;;22.95;;
22843;SDS011;11588;51.178;4.852;2023-02-22T11:41:45;31.10;;;23.13;;
22843;SDS011;11588;51.178;4.852;2023-02-22T11:46:45;29.58;;;21.88;;
22843;SDS011;11588;51.178;4.852;2023-02-22T11:49:12;31.88;;;23.50;;
22843;SDS011;11588;51.178;4.852;2023-02-22T11:51:43;37.30;;;24.65;;
22843;SDS011;11588;51.178;4.852;2023-02-22T11:56:44;32.83;;;24.83;;
22843;SDS011;11588;51.178;4.852;2023-02-22T12:01:42;35.28;;;25.55;;
22843;SDS011;11588;51.178;4.852;2023-02-22T12:06:43;34.20;;;25.10;;
22843;SDS011;11588;51.178;4.852;2023-02-22T12:09:12;38.80;;;25.40;;
22843;SDS011;11588;51.178;4.852;2023-02-22T12:11:44;40.95;;;26.42;;
22843;SDS011;11588;51.178;4.852;2023-02-22T12:19:20;37.30;;;26.77;;
22843;SDS011;11588;51.178;4.852;2023-02-22T12:24:21;41.20;;;27.67;;
22843;SDS011;11588;51.178;4.852;2023-02-22T12:26:49;35.67;;;27.00;;
22843;SDS011;11588;51.178;4.852;2023-02-22T12:31:46;39.17;;;28.15;;
22843;SDS011;11588;51.178;4.852;2023-02-22T12:36:47;38.47;;;28.63;;
22843;SDS011;11588;51.178;4.852;2023-02-22T12:39:29;42.10;;;29.40;;
22843;SDS011;11588;51.178;4.852;2023-02-22T12:41:59;38.63;;;30.30;;
22843;SDS011;11588;51.178;4.852;2023-02-22T12:44:28;42.83;;;29.25;;
22843;SDS011;11588;51.178;4.852;2023-02-22T12:46:58;42.88;;;32.25;;
22843;SDS011;11588;51.178;4.852;2023-02-22T12:56:56;41.58;;;31.75;;
22843;SDS011;11588;51.178;4.852;2023-02-22T13:01:55;43.72;;;32.75;;
22843;SDS011;11588;51.178;4.852;2023-02-22T13:04:23;43.13;;;31.88;;
22843;SDS011;11588;51.178;4.852;2023-02-22T13:16:48;45.03;;;33.55;;
22843;SDS011;11588;51.178;4.852;2023-02-22T13:19:23;42.10;;;32.95;;
22843;SDS011;11588;51.178;4.852;2023-02-22T13:24:22;41.53;;;33.33;;
22843;SDS011;11588;51.178;4.852;2023-02-22T13:29:19;44.72;;;33.17;;
22843;SDS011;11588;51.178;4.852;2023-02-22T13:34:20;47.53;;;35.20;;
22843;SDS011;11588;51.178;4.852;2023-02-22T13:52:09;60.25;;;39.63;;
22843;SDS011;11588;51.178;4.852;2023-02-22T13:59:37;52.00;;;39.88;;
22843;SDS011;11588;51.178;4.852;2023-02-22T14:02:04;58.45;;;42.33;;
22843;SDS011;11588;51.178;4.852;2023-02-22T14:04:34;54.63;;;42.05;;
22843;SDS011;11588;51.178;4.852;2023-02-22T14:07:35;64.05;;;43.83;;
22843;SDS011;11588;51.178;4.852;2023-02-22T14:15:07;60.60;;;44.60;;
22843;SDS011;11588;51.178;4.852;2023-02-22T14:17:36;60.95;;;45.65;;
22843;SDS011;11588;51.178;4.852;2023-02-22T14:20:05;63.72;;;44.80;;
22843;SDS011;11588;51.178;4.852;2023-02-22T14:22:45;64.13;;;48.17;;
22843;SDS011;11588;51.178;4.852;2023-02-22T14:27:43;67.20;;;48.22;;
22843;SDS011;11588;51.178;4.852;2023-02-22T14:30:20;65.15;;;47.97;;
22843;SDS011;11588;51.178;4.852;2023-02-22T14:32:51;66.93;;;47.60;;
22843;SDS011;11588;51.178;4.852;2023-02-22T14:35:17;62.75;;;47.17;;
22843;SDS011;11588;51.178;4.852;2023-02-22T14:37:48;67.53;;;47.88;;
22843;SDS011;11588;51.178;4.852;2023-02-22T14:40:21;66.55;;;49.22;;
22843;SDS011;11588;51.178;4.852;2023-02-22T14:42:57;68.97;;;47.97;;
22843;SDS011;11588;51.178;4.852;2023-02-22T14:48:01;70.55;;;49.53;;
22843;SDS011;11588;51.178;4.852;2023-02-22T14:53:00;74.82;;;50.83;;
22843;SDS011;11588;51.178;4.852;2023-02-22T14:55:26;76.15;;;51.83;;
22843;SDS011;11588;51.178;4.852;2023-02-22T15:02:57;78.00;;;52.13;;
22843;SDS011;11588;51.178;4.852;2023-02-22T15:05:25;79.45;;;53.58;;
22843;SDS011;11588;51.178;4.852;2023-02-22T15:07:58;86.35;;;56.22;;
22843;SDS011;11588;51.178;4.852;2023-02-22T15:12:59;82.10;;;53.67;;
22843;SDS011;11588;51.178;4.852;2023-02-22T15:15:29;85.35;;;53.50;;
22843;SDS011;11588;51.178;4.852;2023-02-22T15:17:56;88.20;;;55.03;;
22843;SDS011;11588;51.178;4.852;2023-02-22T15:20:23;89.22;;;54.50;;
22843;SDS011;11588;51.178;4.852;2023-02-22T15:22:49;88.65;;;54.50;;
22843;SDS011;11588;51.178;4.852;2023-02-22T15:25:17;85.90;;;54.05;;
22843;SDS011;11588;51.178;4.852;2023-02-22T15:27:48;86.72;;;52.92;;
22843;SDS011;11588;51.178;4.852;2023-02-22T15:32:43;86.93;;;51.83;;
22843;SDS011;11588;51.178;4.852;2023-02-22T15:37:39;78.78;;;47.60;;
22843;SDS011;11588;51.178;4.852;2023-02-22T15:40:06;72.95;;;45.50;;
22843;SDS011;11588;51.178;4.852;2023-02-22T15:45:11;74.43;;;45.38;;
22843;SDS011;11588;51.178;4.852;2023-02-22T15:47:38;70.53;;;43.97;;
22843;SDS011;11588;51.178;4.852;2023-02-22T15:55:27;78.95;;;47.35;;
22843;SDS011;11588;51.178;4.852;2023-02-22T15:57:55;81.65;;;49.42;;
22843;SDS011;11588;51.178;4.852;2023-02-22T16:00:26;87.35;;;54.30;;
22843;SDS011;11588;51.178;4.852;2023-02-22T16:03:02;83.40;;;53.55;;
22843;SDS011;11588;51.178;4.852;2023-02-22T16:07:59;90.03;;;51.72;;
22843;SDS011;11588;51.178;4.852;2023-02-22T16:10:26;87.43;;;53.72;;
22843;SDS011;11588;51.178;4.852;2023-02-22T16:15:30;94.25;;;55.10;;
22843;SDS011;11588;51.178;4.852;2023-02-22T16:17:57;89.63;;;56.05;;
22843;SDS011;11588;51.178;4.852;2023-02-22T16:20:41;92.53;;;53.97;;
22843;SDS011;11588;51.178;4.852;2023-02-22T16:25:38;104.00;;;58.33;;
22843;SDS011;11588;51.178;4.852;2023-02-22T16:30:37;87.75;;;51.45;;
22843;SDS011;11588;51.178;4.852;2023-02-22T16:33:05;90.35;;;53.25;;
22843;SDS011;11588;51.178;4.852;2023-02-22T16:35:34;94.95;;;54.30;;
22843;SDS011;11588;51.178;4.852;2023-02-22T16:38:02;89.70;;;53.80;;
22843;SDS011;11588;51.178;4.852;2023-02-22T16:40:31;88.55;;;52.30;;
22843;SDS011;11588;51.178;4.852;2023-02-22T16:43:00;87.97;;;53.63;;
22843;SDS011;11588;51.178;4.852;2023-02-22T16:45:27;88.38;;;53.65;;
22843;SDS011;11588;51.178;4.852;2023-02-22T16:47:53;96.47;;;54.10;;
22843;SDS011;11588;51.178;4.852;2023-02-22T16:50:20;93.97;;;54.88;;
22843;SDS011;11588;51.178;4.852;2023-02-22T16:52:46;90.40;;;55.45;;
22843;SDS011;11588;51.178;4.852;2023-02-22T16:55:13;94.38;;;55.10;;
22843;SDS011;11588;51.178;4.852;2023-02-22T16:57:40;93.20;;;54.83;;
22843;SDS011;11588;51.178;4.852;2023-02-22T17:02:38;104.60;;;56.33;;
22843;SDS011;11588;51.178;4.852;2023-02-22T17:05:05;95.50;;;54.53;;
22843;SDS011;11588;51.178;4.852;2023-02-22T17:07:32;97.80;;;54.42;;
22843;SDS011;11588;51.178;4.852;2023-02-22T17:09:59;100.47;;;57.00;;
22843;SDS011;11588;51.178;4.852;2023-02-22T17:12:26;100.80;;;55.08;;